sensor_id;sensor_type;location;lat;lon;timestamp;P1;durP1;ratioP1;P2;durP2;ratioP2
33672;SDS011;20011;51.510;9.942;2023-05-13T00:02:14;7.07;;;4.43;;
33672;SDS011;20011;51.510;9.942;2023-05-13T00:04:41;8.32;;;4.78;;
33672;SDS011;20011;51.510;9.942;2023-05-13T00:07:08;8.05;;;4.93;;
33672;SDS011;20011;51.510;9.942;2023-05-13T00:09:35;11.15;;;4.70;;
33672;SDS011;20011;51.510;9.942;2023-05-13T00:12:01;7.65;;;4.55;;
33672;SDS011;20011;51.510;9.942;2023-05-13T00:14:28;7.18;;;4.45;;
33672;SDS011;20011;51.510;9.942;2023-05-13T00:16:55;10.23;;;5.07;;
33672;SDS011;20011;51.510;9.942;2023-05-13T00:19:24;6.82;;;4.78;;
33672;SDS011;20011;51.510;9.942;2023-05-13T00:21:51;9.25;;;5.13;;
33672;SDS011;20011;51.510;9.942;2023-05-13T00:24:18;9.10;;;4.88;;
33672;SDS011;20011;51.510;9.942;2023-05-13T00:26:45;8.93;;;5.35;;
33672;SDS011;20011;51.510;9.942;2023-05-13T00:29:12;15.80;;;5.38;;
33672;SDS011;20011;51.510;9.942;2023-05-13T00:31:39;8.30;;;5.00;;
33672;SDS011;20011;51.510;9.942;2023-05-13T00:34:07;9.35;;;5.28;;
33672;SDS011;20011;51.510;9.942;2023-05-13T00:36:34;10.00;;;5.22;;
33672;SDS011;20011;51.510;9.942;2023-05-13T00:39:01;5.88;;;4.50;;
33672;SDS011;20011;51.510;9.942;2023-05-13T00:41:29;4.75;;;4.22;;
33672;SDS011;20011;51.510;9.942;2023-05-13T00:43:56;8.00;;;5.40;;
33672;SDS011;20011;51.510;9.942;2023-05-13T00:46:23;8.82;;;5.22;;
33672;SDS011;20011;51.510;9.942;2023-05-13T00:48:50;9.18;;;5.18;;
33672;SDS011;20011;51.510;9.942;2023-05-13T00:51:17;9.35;;;4.50;;
33672;SDS011;20011;51.510;9.942;2023-05-13T00:53:44;6.75;;;4.38;;
33672;SDS011;20011;51.510;9.942;2023-05-13T00:56:12;7.70;;;4.50;;
33672;SDS011;20011;51.510;9.942;2023-05-13T00:58:40;9.65;;;4.65;;
33672;SDS011;20011;51.510;9.942;2023-05-13T01:03:45;10.07;;;4.93;;
33672;SDS011;20011;51.510;9.942;2023-05-13T01:06:20;7.60;;;4.93;;
33672;SDS011;20011;51.510;9.942;2023-05-13T01:09:14;7.22;;;4.80;;
33672;SDS011;20011;51.510;9.942;2023-05-13T01:11:43;8.68;;;4.85;;
33672;SDS011;20011;51.510;9.942;2023-05-13T01:14:15;10.30;;;5.18;;
33672;SDS011;20011;51.510;9.942;2023-05-13T01:16:48;7.70;;;4.38;;
33672;SDS011;20011;51.510;9.942;2023-05-13T01:19:28;5.90;;;3.95;;
33672;SDS011;20011;51.510;9.942;2023-05-13T01:22:00;9.50;;;4.38;;
33672;SDS011;20011;51.510;9.942;2023-05-13T01:24:27;9.05;;;4.55;;
33672;SDS011;20011;51.510;9.942;2023-05-13T01:26:55;8.98;;;4.53;;
33672;SDS011;20011;51.510;9.942;2023-05-13T01:29:22;7.95;;;4.60;;
33672;SDS011;20011;51.510;9.942;2023-05-13T01:31:49;7.47;;;4.53;;
33672;SDS011;20011;51.510;9.942;2023-05-13T01:34:18;4.45;;;3.95;;
33672;SDS011;20011;51.510;9.942;2023-05-13T01:36:47;9.32;;;4.40;;
33672;SDS011;20011;51.510;9.942;2023-05-13T01:39:16;6.88;;;4.55;;
33672;SDS011;20011;51.510;9.942;2023-05-13T01:41:47;6.05;;;4.90;;
33672;SDS011;20011;51.510;9.942;2023-05-13T01:44:16;10.20;;;4.95;;
33672;SDS011;20011;51.510;9.942;2023-05-13T01:46:43;8.75;;;4.72;;
33672;SDS011;20011;51.510;9.942;2023-05-13T01:49:11;5.97;;;4.57;;
33672;SDS011;20011;51.510;9.942;2023-05-13T01:51:38;8.95;;;4.50;;
33672;SDS011;20011;51.510;9.942;2023-05-13T01:54:06;5.88;;;3.72;;
33672;SDS011;20011;51.510;9.942;2023-05-13T01:56:37;5.72;;;3.85;;
33672;SDS011;20011;51.510;9.942;2023-05-13T01:59:04;7.10;;;4.13;;
33672;SDS011;20011;51.510;9.942;2023-05-13T02:01:31;5.20;;;4.15;;
33672;SDS011;20011;51.510;9.942;2023-05-13T02:03:58;6.10;;;4.28;;
33672;SDS011;20011;51.510;9.942;2023-05-13T02:06:26;5.93;;;4.30;;
33672;SDS011;20011;51.510;9.942;2023-05-13T02:08:53;7.60;;;4.18;;
33672;SDS011;20011;51.510;9.942;2023-05-13T02:11:20;7.55;;;4.15;;
33672;SDS011;20011;51.510;9.942;2023-05-13T02:13:47;5.43;;;3.88;;
33672;SDS011;20011;51.510;9.942;2023-05-13T02:16:15;8.80;;;4.38;;
33672;SDS011;20011;51.510;9.942;2023-05-13T02:18:43;5.43;;;3.88;;
33672;SDS011;20011;51.510;9.942;2023-05-13T02:21:10;10.52;;;4.40;;
33672;SDS011;20011;51.510;9.942;2023-05-13T02:23:37;11.93;;;4.80;;
33672;SDS011;20011;51.510;9.942;2023-05-13T02:26:04;12.10;;;4.65;;
33672;SDS011;20011;51.510;9.942;2023-05-13T02:28:31;9.30;;;4.68;;
33672;SDS011;20011;51.510;9.942;2023-05-13T02:30:58;4.50;;;3.67;;
33672;SDS011;20011;51.510;9.942;2023-05-13T02:33:25;5.07;;;4.07;;
33672;SDS011;20011;51.510;9.942;2023-05-13T02:35:52;9.07;;;4.30;;
33672;SDS011;20011;51.510;9.942;2023-05-13T02:38:19;9.00;;;4.57;;
33672;SDS011;20011;51.510;9.942;2023-05-13T02:40:46;6.28;;;4.00;;
33672;SDS011;20011;51.510;9.942;2023-05-13T02:43:14;4.28;;;3.85;;
33672;SDS011;20011;51.510;9.942;2023-05-13T02:45:49;5.90;;;4.25;;
33672;SDS011;20011;51.510;9.942;2023-05-13T02:48:16;6.28;;;3.95;;
33672;SDS011;20011;51.510;9.942;2023-05-13T02:50:44;4.65;;;3.83;;
33672;SDS011;20011;51.510;9.942;2023-05-13T02:53:11;6.80;;;4.30;;
33672;SDS011;20011;51.510;9.942;2023-05-13T02:55:44;15.82;;;7.20;;
33672;SDS011;20011;51.510;9.942;2023-05-13T02:58:11;12.55;;;6.07;;
33672;SDS011;20011;51.510;9.942;2023-05-13T03:00:39;7.68;;;3.92;;
33672;SDS011;20011;51.510;9.942;2023-05-13T03:03:06;5.47;;;4.45;;
33672;SDS011;20011;51.510;9.942;2023-05-13T03:05:33;9.05;;;4.72;;
33672;SDS011;20011;51.510;9.942;2023-05-13T03:08:00;8.07;;;4.10;;
33672;SDS011;20011;51.510;9.942;2023-05-13T03:10:27;6.97;;;4.43;;
33672;SDS011;20011;51.510;9.942;2023-05-13T03:12:54;5.00;;;4.28;;
33672;SDS011;20011;51.510;9.942;2023-05-13T03:15:21;5.38;;;3.85;;
33672;SDS011;20011;51.510;9.942;2023-05-13T03:17:48;7.93;;;4.90;;
33672;SDS011;20011;51.510;9.942;2023-05-13T03:20:17;5.80;;;4.57;;
33672;SDS011;20011;51.510;9.942;2023-05-13T03:22:45;6.70;;;4.20;;
33672;SDS011;20011;51.510;9.942;2023-05-13T03:25:12;6.18;;;4.63;;
33672;SDS011;20011;51.510;9.942;2023-05-13T03:27:43;6.25;;;4.50;;
33672;SDS011;20011;51.510;9.942;2023-05-13T03:30:10;4.93;;;3.97;;
33672;SDS011;20011;51.510;9.942;2023-05-13T03:32:45;9.82;;;4.75;;
33672;SDS011;20011;51.510;9.942;2023-05-13T03:35:13;6.18;;;4.43;;
33672;SDS011;20011;51.510;9.942;2023-05-13T03:37:40;9.98;;;4.50;;
33672;SDS011;20011;51.510;9.942;2023-05-13T03:40:09;8.02;;;4.28;;
33672;SDS011;20011;51.510;9.942;2023-05-13T03:42:37;10.90;;;4.40;;
33672;SDS011;20011;51.510;9.942;2023-05-13T03:45:04;10.23;;;4.32;;
33672;SDS011;20011;51.510;9.942;2023-05-13T03:52:38;9.98;;;3.63;;
33672;SDS011;20011;51.510;9.942;2023-05-13T03:55:05;11.85;;;4.28;;
33672;SDS011;20011;51.510;9.942;2023-05-13T03:57:33;5.15;;;3.75;;
33672;SDS011;20011;51.510;9.942;2023-05-13T04:00:01;7.80;;;4.28;;
33672;SDS011;20011;51.510;9.942;2023-05-13T04:02:39;9.27;;;4.43;;
33672;SDS011;20011;51.510;9.942;2023-05-13T04:05:08;8.65;;;4.95;;
33672;SDS011;20011;51.510;9.942;2023-05-13T04:07:35;8.38;;;3.67;;
33672;SDS011;20011;51.510;9.942;2023-05-13T04:10:02;7.68;;;4.25;;
33672;SDS011;20011;51.510;9.942;2023-05-13T04:12:29;5.82;;;4.53;;
33672;SDS011;20011;51.510;9.942;2023-05-13T04:14:56;12.10;;;4.35;;
33672;SDS011;20011;51.510;9.942;2023-05-13T04:17:23;7.63;;;4.22;;
33672;SDS011;20011;51.510;9.942;2023-05-13T04:19:53;6.78;;;4.25;;
33672;SDS011;20011;51.510;9.942;2023-05-13T04:24:49;12.30;;;5.38;;
33672;SDS011;20011;51.510;9.942;2023-05-13T04:27:22;7.60;;;5.72;;
33672;SDS011;20011;51.510;9.942;2023-05-13T04:29:52;5.28;;;4.38;;
33672;SDS011;20011;51.510;9.942;2023-05-13T04:32:19;7.20;;;4.40;;
33672;SDS011;20011;51.510;9.942;2023-05-13T04:34:53;6.22;;;4.80;;
33672;SDS011;20011;51.510;9.942;2023-05-13T04:37:22;4.82;;;3.60;;
33672;SDS011;20011;51.510;9.942;2023-05-13T04:39:52;6.65;;;4.25;;
33672;SDS011;20011;51.510;9.942;2023-05-13T04:42:21;12.52;;;4.53;;
33672;SDS011;20011;51.510;9.942;2023-05-13T04:44:48;7.95;;;3.88;;
33672;SDS011;20011;51.510;9.942;2023-05-13T04:47:15;8.63;;;4.43;;
33672;SDS011;20011;51.510;9.942;2023-05-13T04:49:44;5.55;;;4.25;;
33672;SDS011;20011;51.510;9.942;2023-05-13T04:52:11;10.40;;;4.95;;
33672;SDS011;20011;51.510;9.942;2023-05-13T04:54:38;8.43;;;5.15;;
33672;SDS011;20011;51.510;9.942;2023-05-13T04:57:06;9.85;;;4.68;;
33672;SDS011;20011;51.510;9.942;2023-05-13T04:59:34;10.63;;;4.22;;
33672;SDS011;20011;51.510;9.942;2023-05-13T05:02:01;7.85;;;5.00;;
33672;SDS011;20011;51.510;9.942;2023-05-13T05:04:28;6.45;;;4.65;;
33672;SDS011;20011;51.510;9.942;2023-05-13T05:06:55;8.30;;;4.53;;
33672;SDS011;20011;51.510;9.942;2023-05-13T05:09:22;11.43;;;4.93;;
33672;SDS011;20011;51.510;9.942;2023-05-13T05:11:51;8.27;;;4.63;;
33672;SDS011;20011;51.510;9.942;2023-05-13T05:14:21;7.40;;;4.50;;
33672;SDS011;20011;51.510;9.942;2023-05-13T05:16:48;5.10;;;4.60;;
33672;SDS011;20011;51.510;9.942;2023-05-13T05:19:15;6.20;;;4.63;;
33672;SDS011;20011;51.510;9.942;2023-05-13T05:21:43;10.82;;;5.28;;
33672;SDS011;20011;51.510;9.942;2023-05-13T05:24:11;5.68;;;4.25;;
33672;SDS011;20011;51.510;9.942;2023-05-13T05:26:38;6.57;;;4.13;;
33672;SDS011;20011;51.510;9.942;2023-05-13T05:29:08;7.97;;;5.15;;
33672;SDS011;20011;51.510;9.942;2023-05-13T05:31:35;6.72;;;4.47;;
33672;SDS011;20011;51.510;9.942;2023-05-13T05:34:02;7.45;;;4.72;;
33672;SDS011;20011;51.510;9.942;2023-05-13T05:36:30;12.63;;;5.15;;
33672;SDS011;20011;51.510;9.942;2023-05-13T05:38:57;20.90;;;4.97;;
33672;SDS011;20011;51.510;9.942;2023-05-13T05:41:30;6.55;;;4.70;;
33672;SDS011;20011;51.510;9.942;2023-05-13T05:43:58;7.32;;;5.00;;
33672;SDS011;20011;51.510;9.942;2023-05-13T05:46:25;7.95;;;4.97;;
33672;SDS011;20011;51.510;9.942;2023-05-13T05:48:52;13.70;;;4.57;;
33672;SDS011;20011;51.510;9.942;2023-05-13T05:51:20;9.30;;;4.88;;
33672;SDS011;20011;51.510;9.942;2023-05-13T05:53:47;6.93;;;5.05;;
33672;SDS011;20011;51.510;9.942;2023-05-13T05:56:15;11.05;;;5.40;;
33672;SDS011;20011;51.510;9.942;2023-05-13T05:58:44;7.82;;;5.25;;
33672;SDS011;20011;51.510;9.942;2023-05-13T06:01:10;7.28;;;5.63;;
33672;SDS011;20011;51.510;9.942;2023-05-13T06:03:38;7.60;;;5.18;;
33672;SDS011;20011;51.510;9.942;2023-05-13T06:06:05;12.48;;;5.82;;
33672;SDS011;20011;51.510;9.942;2023-05-13T06:08:32;13.85;;;5.53;;
33672;SDS011;20011;51.510;9.942;2023-05-13T06:10:59;12.23;;;6.53;;
33672;SDS011;20011;51.510;9.942;2023-05-13T06:13:26;7.10;;;5.20;;
33672;SDS011;20011;51.510;9.942;2023-05-13T06:15:53;9.10;;;5.65;;
33672;SDS011;20011;51.510;9.942;2023-05-13T06:18:20;13.70;;;6.22;;
33672;SDS011;20011;51.510;9.942;2023-05-13T06:20:48;7.28;;;5.43;;
33672;SDS011;20011;51.510;9.942;2023-05-13T06:23:17;8.27;;;5.40;;
33672;SDS011;20011;51.510;9.942;2023-05-13T06:25:44;14.35;;;6.60;;
33672;SDS011;20011;51.510;9.942;2023-05-13T06:28:12;17.23;;;6.28;;
33672;SDS011;20011;51.510;9.942;2023-05-13T06:30:40;7.45;;;5.70;;
33672;SDS011;20011;51.510;9.942;2023-05-13T06:33:08;12.90;;;6.68;;
33672;SDS011;20011;51.510;9.942;2023-05-13T06:35:37;11.25;;;6.28;;
33672;SDS011;20011;51.510;9.942;2023-05-13T06:38:05;9.38;;;5.50;;
33672;SDS011;20011;51.510;9.942;2023-05-13T06:40:33;10.27;;;5.93;;
33672;SDS011;20011;51.510;9.942;2023-05-13T06:43:00;12.05;;;5.80;;
33672;SDS011;20011;51.510;9.942;2023-05-13T06:45:30;9.85;;;6.43;;
33672;SDS011;20011;51.510;9.942;2023-05-13T06:47:57;8.15;;;6.10;;
33672;SDS011;20011;51.510;9.942;2023-05-13T06:50:24;13.98;;;6.55;;
33672;SDS011;20011;51.510;9.942;2023-05-13T06:52:51;8.18;;;5.95;;
33672;SDS011;20011;51.510;9.942;2023-05-13T06:55:18;7.38;;;5.85;;
33672;SDS011;20011;51.510;9.942;2023-05-13T06:57:45;9.02;;;6.22;;
33672;SDS011;20011;51.510;9.942;2023-05-13T07:00:13;9.65;;;7.03;;
33672;SDS011;20011;51.510;9.942;2023-05-13T07:02:41;12.68;;;6.63;;
33672;SDS011;20011;51.510;9.942;2023-05-13T07:05:09;12.35;;;6.35;;
33672;SDS011;20011;51.510;9.942;2023-05-13T07:07:37;8.85;;;6.50;;
33672;SDS011;20011;51.510;9.942;2023-05-13T07:10:04;11.88;;;6.60;;
33672;SDS011;20011;51.510;9.942;2023-05-13T07:12:31;8.25;;;6.45;;
33672;SDS011;20011;51.510;9.942;2023-05-13T07:14:58;10.88;;;5.72;;
33672;SDS011;20011;51.510;9.942;2023-05-13T07:17:25;13.68;;;6.03;;
33672;SDS011;20011;51.510;9.942;2023-05-13T07:19:52;15.60;;;7.03;;
33672;SDS011;20011;51.510;9.942;2023-05-13T07:22:19;11.57;;;5.72;;
33672;SDS011;20011;51.510;9.942;2023-05-13T07:24:46;7.18;;;5.82;;
33672;SDS011;20011;51.510;9.942;2023-05-13T07:27:13;11.82;;;6.35;;
33672;SDS011;20011;51.510;9.942;2023-05-13T07:29:40;8.07;;;5.82;;
33672;SDS011;20011;51.510;9.942;2023-05-13T07:32:07;12.80;;;6.28;;
33672;SDS011;20011;51.510;9.942;2023-05-13T07:34:34;8.20;;;5.70;;
33672;SDS011;20011;51.510;9.942;2023-05-13T07:37:01;10.57;;;5.90;;
33672;SDS011;20011;51.510;9.942;2023-05-13T07:39:29;15.98;;;5.35;;
33672;SDS011;20011;51.510;9.942;2023-05-13T07:41:56;9.27;;;5.28;;
33672;SDS011;20011;51.510;9.942;2023-05-13T07:44:24;14.13;;;5.15;;
33672;SDS011;20011;51.510;9.942;2023-05-13T07:46:51;14.25;;;4.93;;
33672;SDS011;20011;51.510;9.942;2023-05-13T07:49:19;8.80;;;4.63;;
33672;SDS011;20011;51.510;9.942;2023-05-13T07:51:46;8.48;;;4.75;;
33672;SDS011;20011;51.510;9.942;2023-05-13T07:54:13;8.15;;;4.18;;
33672;SDS011;20011;51.510;9.942;2023-05-13T07:56:40;8.63;;;4.18;;
33672;SDS011;20011;51.510;9.942;2023-05-13T07:59:09;13.75;;;5.15;;
33672;SDS011;20011;51.510;9.942;2023-05-13T08:01:36;8.48;;;4.60;;
33672;SDS011;20011;51.510;9.942;2023-05-13T08:04:03;7.70;;;4.43;;
33672;SDS011;20011;51.510;9.942;2023-05-13T08:06:30;8.55;;;4.53;;
33672;SDS011;20011;51.510;9.942;2023-05-13T08:08:58;15.98;;;4.43;;
33672;SDS011;20011;51.510;9.942;2023-05-13T08:11:25;7.13;;;3.67;;
33672;SDS011;20011;51.510;9.942;2023-05-13T08:13:52;10.10;;;4.20;;
33672;SDS011;20011;51.510;9.942;2023-05-13T08:16:19;7.30;;;4.30;;
33672;SDS011;20011;51.510;9.942;2023-05-13T08:18:46;9.27;;;4.30;;
33672;SDS011;20011;51.510;9.942;2023-05-13T08:21:13;5.57;;;4.13;;
33672;SDS011;20011;51.510;9.942;2023-05-13T08:23:40;9.48;;;4.25;;
33672;SDS011;20011;51.510;9.942;2023-05-13T08:26:11;9.15;;;4.13;;
33672;SDS011;20011;51.510;9.942;2023-05-13T08:28:38;8.88;;;4.90;;
33672;SDS011;20011;51.510;9.942;2023-05-13T08:31:09;6.05;;;4.03;;
33672;SDS011;20011;51.510;9.942;2023-05-13T08:33:37;19.42;;;4.28;;
33672;SDS011;20011;51.510;9.942;2023-05-13T08:36:08;12.77;;;3.97;;
33672;SDS011;20011;51.510;9.942;2023-05-13T08:38:35;8.18;;;4.18;;
33672;SDS011;20011;51.510;9.942;2023-05-13T08:41:02;6.15;;;3.78;;
33672;SDS011;20011;51.510;9.942;2023-05-13T08:43:31;15.93;;;4.35;;
33672;SDS011;20011;51.510;9.942;2023-05-13T08:46:02;7.50;;;4.57;;
33672;SDS011;20011;51.510;9.942;2023-05-13T08:48:30;7.30;;;4.43;;
33672;SDS011;20011;51.510;9.942;2023-05-13T08:50:57;7.32;;;4.13;;
33672;SDS011;20011;51.510;9.942;2023-05-13T08:53:26;11.02;;;5.13;;
33672;SDS011;20011;51.510;9.942;2023-05-13T08:55:53;14.88;;;4.32;;
33672;SDS011;20011;51.510;9.942;2023-05-13T08:58:21;7.85;;;4.25;;
33672;SDS011;20011;51.510;9.942;2023-05-13T09:00:48;18.52;;;4.60;;
33672;SDS011;20011;51.510;9.942;2023-05-13T09:03:17;12.75;;;5.25;;
33672;SDS011;20011;51.510;9.942;2023-05-13T09:05:45;7.07;;;4.65;;
33672;SDS011;20011;51.510;9.942;2023-05-13T09:08:12;14.10;;;5.13;;
33672;SDS011;20011;51.510;9.942;2023-05-13T09:10:39;8.77;;;4.50;;
33672;SDS011;20011;51.510;9.942;2023-05-13T09:13:06;5.20;;;4.00;;
33672;SDS011;20011;51.510;9.942;2023-05-13T09:15:33;5.93;;;4.43;;
33672;SDS011;20011;51.510;9.942;2023-05-13T09:18:04;9.82;;;4.63;;
33672;SDS011;20011;51.510;9.942;2023-05-13T09:20:32;14.18;;;5.10;;
33672;SDS011;20011;51.510;9.942;2023-05-13T09:23:01;7.60;;;4.63;;
33672;SDS011;20011;51.510;9.942;2023-05-13T09:25:31;8.00;;;4.78;;
33672;SDS011;20011;51.510;9.942;2023-05-13T09:28:00;8.27;;;4.18;;
33672;SDS011;20011;51.510;9.942;2023-05-13T09:30:28;9.98;;;4.60;;
33672;SDS011;20011;51.510;9.942;2023-05-13T09:35:41;6.30;;;4.47;;
33672;SDS011;20011;51.510;9.942;2023-05-13T09:43:21;6.45;;;3.60;;
33672;SDS011;20011;51.510;9.942;2023-05-13T09:45:55;12.40;;;5.03;;
33672;SDS011;20011;51.510;9.942;2023-05-13T09:48:24;10.40;;;3.83;;
33672;SDS011;20011;51.510;9.942;2023-05-13T09:50:52;6.30;;;3.10;;
33672;SDS011;20011;51.510;9.942;2023-05-13T09:53:20;4.93;;;3.22;;
33672;SDS011;20011;51.510;9.942;2023-05-13T09:55:48;7.85;;;4.18;;
33672;SDS011;20011;51.510;9.942;2023-05-13T09:58:17;5.95;;;3.55;;
33672;SDS011;20011;51.510;9.942;2023-05-13T10:00:48;10.63;;;4.07;;
33672;SDS011;20011;51.510;9.942;2023-05-13T10:03:16;5.10;;;3.63;;
33672;SDS011;20011;51.510;9.942;2023-05-13T10:05:43;6.07;;;3.60;;
33672;SDS011;20011;51.510;9.942;2023-05-13T10:08:12;8.93;;;3.92;;
33672;SDS011;20011;51.510;9.942;2023-05-13T10:10:43;6.47;;;3.65;;
33672;SDS011;20011;51.510;9.942;2023-05-13T10:13:13;5.20;;;3.35;;
33672;SDS011;20011;51.510;9.942;2023-05-13T10:15:45;9.98;;;4.45;;
33672;SDS011;20011;51.510;9.942;2023-05-13T10:18:15;4.22;;;3.35;;
33672;SDS011;20011;51.510;9.942;2023-05-13T10:20:43;7.40;;;2.97;;
33672;SDS011;20011;51.510;9.942;2023-05-13T10:23:11;11.30;;;4.00;;
33672;SDS011;20011;51.510;9.942;2023-05-13T10:25:38;6.22;;;3.60;;
33672;SDS011;20011;51.510;9.942;2023-05-13T10:28:07;7.47;;;4.35;;
33672;SDS011;20011;51.510;9.942;2023-05-13T10:30:35;5.13;;;3.80;;
33672;SDS011;20011;51.510;9.942;2023-05-13T10:33:03;7.47;;;3.55;;
33672;SDS011;20011;51.510;9.942;2023-05-13T10:35:31;8.00;;;3.22;;
33672;SDS011;20011;51.510;9.942;2023-05-13T10:41:19;21.75;;;9.07;;
33672;SDS011;20011;51.510;9.942;2023-05-13T10:43:56;17.63;;;7.85;;
33672;SDS011;20011;51.510;9.942;2023-05-13T10:46:24;15.65;;;7.10;;
33672;SDS011;20011;51.510;9.942;2023-05-13T10:48:57;11.95;;;5.18;;
33672;SDS011;20011;51.510;9.942;2023-05-13T10:51:25;7.97;;;4.50;;
33672;SDS011;20011;51.510;9.942;2023-05-13T10:53:53;4.35;;;3.13;;
33672;SDS011;20011;51.510;9.942;2023-05-13T10:56:22;10.88;;;3.05;;
33672;SDS011;20011;51.510;9.942;2023-05-13T10:58:58;9.23;;;2.90;;
33672;SDS011;20011;51.510;9.942;2023-05-13T11:01:35;5.35;;;3.00;;
33672;SDS011;20011;51.510;9.942;2023-05-13T11:04:13;5.68;;;3.15;;
33672;SDS011;20011;51.510;9.942;2023-05-13T11:06:42;11.32;;;3.72;;
33672;SDS011;20011;51.510;9.942;2023-05-13T11:11:39;4.18;;;2.95;;
33672;SDS011;20011;51.510;9.942;2023-05-13T11:16:34;4.85;;;3.33;;
33672;SDS011;20011;51.510;9.942;2023-05-13T11:19:02;5.63;;;2.72;;
33672;SDS011;20011;51.510;9.942;2023-05-13T11:21:30;6.45;;;3.88;;
33672;SDS011;20011;51.510;9.942;2023-05-13T11:24:02;5.80;;;2.72;;
33672;SDS011;20011;51.510;9.942;2023-05-13T11:26:41;8.90;;;3.40;;
33672;SDS011;20011;51.510;9.942;2023-05-13T11:29:31;4.25;;;2.80;;
33672;SDS011;20011;51.510;9.942;2023-05-13T11:32:00;4.85;;;2.75;;
33672;SDS011;20011;51.510;9.942;2023-05-13T11:34:28;5.60;;;2.40;;
33672;SDS011;20011;51.510;9.942;2023-05-13T11:36:58;7.38;;;2.70;;
33672;SDS011;20011;51.510;9.942;2023-05-13T11:39:34;7.75;;;2.25;;
33672;SDS011;20011;51.510;9.942;2023-05-13T11:42:09;4.15;;;2.50;;
33672;SDS011;20011;51.510;9.942;2023-05-13T11:44:43;3.50;;;2.65;;
33672;SDS011;20011;51.510;9.942;2023-05-13T11:47:12;4.78;;;2.85;;
33672;SDS011;20011;51.510;9.942;2023-05-13T11:52:09;2.95;;;2.60;;
33672;SDS011;20011;51.510;9.942;2023-05-13T11:54:51;3.08;;;2.25;;
33672;SDS011;20011;51.510;9.942;2023-05-13T11:57:20;5.20;;;2.65;;
33672;SDS011;20011;51.510;9.942;2023-05-13T12:02:25;3.65;;;2.30;;
33672;SDS011;20011;51.510;9.942;2023-05-13T12:04:55;3.22;;;2.65;;
33672;SDS011;20011;51.510;9.942;2023-05-13T12:07:26;5.93;;;2.90;;
33672;SDS011;20011;51.510;9.942;2023-05-13T12:09:54;9.00;;;3.10;;
33672;SDS011;20011;51.510;9.942;2023-05-13T12:12:23;5.57;;;2.83;;
33672;SDS011;20011;51.510;9.942;2023-05-13T12:14:52;16.10;;;3.53;;
33672;SDS011;20011;51.510;9.942;2023-05-13T12:17:20;10.65;;;3.22;;
33672;SDS011;20011;51.510;9.942;2023-05-13T12:28:14;4.97;;;2.50;;
33672;SDS011;20011;51.510;9.942;2023-05-13T12:30:56;8.57;;;2.90;;
33672;SDS011;20011;51.510;9.942;2023-05-13T12:33:39;5.22;;;2.97;;
33672;SDS011;20011;51.510;9.942;2023-05-13T12:36:14;9.90;;;3.45;;
33672;SDS011;20011;51.510;9.942;2023-05-13T12:38:52;3.88;;;2.85;;
33672;SDS011;20011;51.510;9.942;2023-05-13T12:43:58;6.38;;;3.17;;
33672;SDS011;20011;51.510;9.942;2023-05-13T12:46:26;4.20;;;3.13;;
33672;SDS011;20011;51.510;9.942;2023-05-13T12:48:54;7.85;;;3.10;;
33672;SDS011;20011;51.510;9.942;2023-05-13T12:51:22;5.05;;;3.00;;
33672;SDS011;20011;51.510;9.942;2023-05-13T12:53:50;4.95;;;2.95;;
33672;SDS011;20011;51.510;9.942;2023-05-13T12:56:19;4.13;;;2.80;;
33672;SDS011;20011;51.510;9.942;2023-05-13T12:58:48;4.40;;;2.53;;
33672;SDS011;20011;51.510;9.942;2023-05-13T13:01:16;5.20;;;2.92;;
33672;SDS011;20011;51.510;9.942;2023-05-13T13:03:43;4.57;;;2.83;;
33672;SDS011;20011;51.510;9.942;2023-05-13T13:06:11;3.05;;;2.75;;
33672;SDS011;20011;51.510;9.942;2023-05-13T13:08:39;6.95;;;3.10;;
33672;SDS011;20011;51.510;9.942;2023-05-13T13:11:06;5.57;;;2.47;;
33672;SDS011;20011;51.510;9.942;2023-05-13T13:13:32;4.78;;;2.90;;
33672;SDS011;20011;51.510;9.942;2023-05-13T13:16:03;6.07;;;2.30;;
33672;SDS011;20011;51.510;9.942;2023-05-13T13:18:30;4.57;;;2.30;;
33672;SDS011;20011;51.510;9.942;2023-05-13T13:20:57;5.35;;;2.75;;
33672;SDS011;20011;51.510;9.942;2023-05-13T13:23:24;3.50;;;2.47;;
33672;SDS011;20011;51.510;9.942;2023-05-13T13:25:51;6.80;;;3.28;;
33672;SDS011;20011;51.510;9.942;2023-05-13T13:28:18;3.55;;;2.45;;
33672;SDS011;20011;51.510;9.942;2023-05-13T13:30:45;6.82;;;2.90;;
33672;SDS011;20011;51.510;9.942;2023-05-13T13:33:13;3.97;;;2.50;;
33672;SDS011;20011;51.510;9.942;2023-05-13T13:35:41;15.65;;;3.35;;
33672;SDS011;20011;51.510;9.942;2023-05-13T13:38:09;2.72;;;2.53;;
33672;SDS011;20011;51.510;9.942;2023-05-13T13:40:37;6.43;;;2.60;;
33672;SDS011;20011;51.510;9.942;2023-05-13T13:43:04;8.70;;;2.58;;
33672;SDS011;20011;51.510;9.942;2023-05-13T13:45:32;4.30;;;2.72;;
33672;SDS011;20011;51.510;9.942;2023-05-13T13:48:01;7.25;;;2.50;;
33672;SDS011;20011;51.510;9.942;2023-05-13T13:50:28;7.60;;;3.15;;
33672;SDS011;20011;51.510;9.942;2023-05-13T13:52:55;4.43;;;2.35;;
33672;SDS011;20011;51.510;9.942;2023-05-13T13:55:22;5.90;;;2.80;;
33672;SDS011;20011;51.510;9.942;2023-05-13T13:57:49;4.93;;;2.70;;
33672;SDS011;20011;51.510;9.942;2023-05-13T14:00:17;4.32;;;2.63;;
33672;SDS011;20011;51.510;9.942;2023-05-13T14:02:44;11.02;;;2.90;;
33672;SDS011;20011;51.510;9.942;2023-05-13T14:05:12;9.88;;;2.78;;
33672;SDS011;20011;51.510;9.942;2023-05-13T14:07:39;5.38;;;3.00;;
33672;SDS011;20011;51.510;9.942;2023-05-13T14:10:06;4.93;;;2.80;;
33672;SDS011;20011;51.510;9.942;2023-05-13T14:12:34;6.28;;;2.42;;
33672;SDS011;20011;51.510;9.942;2023-05-13T14:15:01;6.03;;;3.00;;
33672;SDS011;20011;51.510;9.942;2023-05-13T14:17:28;3.13;;;2.60;;
33672;SDS011;20011;51.510;9.942;2023-05-13T14:19:56;3.17;;;2.47;;
33672;SDS011;20011;51.510;9.942;2023-05-13T14:22:23;10.20;;;2.53;;
33672;SDS011;20011;51.510;9.942;2023-05-13T14:24:50;3.97;;;2.65;;
33672;SDS011;20011;51.510;9.942;2023-05-13T14:27:18;6.70;;;2.90;;
33672;SDS011;20011;51.510;9.942;2023-05-13T14:29:46;5.70;;;2.95;;
33672;SDS011;20011;51.510;9.942;2023-05-13T14:32:14;7.00;;;2.83;;
33672;SDS011;20011;51.510;9.942;2023-05-13T14:34:41;3.47;;;2.60;;
33672;SDS011;20011;51.510;9.942;2023-05-13T14:37:08;4.88;;;2.72;;
33672;SDS011;20011;51.510;9.942;2023-05-13T14:39:35;5.75;;;2.53;;
33672;SDS011;20011;51.510;9.942;2023-05-13T14:42:03;3.75;;;2.38;;
33672;SDS011;20011;51.510;9.942;2023-05-13T14:44:30;3.47;;;2.67;;
33672;SDS011;20011;51.510;9.942;2023-05-13T14:46:58;3.45;;;2.55;;
33672;SDS011;20011;51.510;9.942;2023-05-13T14:49:25;7.60;;;2.90;;
33672;SDS011;20011;51.510;9.942;2023-05-13T14:51:52;5.90;;;2.30;;
33672;SDS011;20011;51.510;9.942;2023-05-13T14:54:19;5.40;;;2.80;;
33672;SDS011;20011;51.510;9.942;2023-05-13T14:56:47;3.88;;;2.55;;
33672;SDS011;20011;51.510;9.942;2023-05-13T14:59:14;6.55;;;2.70;;
33672;SDS011;20011;51.510;9.942;2023-05-13T15:01:41;3.85;;;2.60;;
33672;SDS011;20011;51.510;9.942;2023-05-13T15:04:08;6.63;;;2.65;;
33672;SDS011;20011;51.510;9.942;2023-05-13T15:06:36;5.88;;;2.63;;
33672;SDS011;20011;51.510;9.942;2023-05-13T15:09:04;8.10;;;2.20;;
33672;SDS011;20011;51.510;9.942;2023-05-13T15:11:32;5.03;;;2.65;;
33672;SDS011;20011;51.510;9.942;2023-05-13T15:14:00;4.28;;;2.40;;
33672;SDS011;20011;51.510;9.942;2023-05-13T15:16:27;7.38;;;2.55;;
33672;SDS011;20011;51.510;9.942;2023-05-13T15:18:54;3.25;;;2.42;;
33672;SDS011;20011;51.510;9.942;2023-05-13T15:21:21;3.45;;;2.38;;
33672;SDS011;20011;51.510;9.942;2023-05-13T15:23:48;3.88;;;3.15;;
33672;SDS011;20011;51.510;9.942;2023-05-13T15:26:16;4.03;;;2.25;;
33672;SDS011;20011;51.510;9.942;2023-05-13T15:28:43;5.88;;;2.60;;
33672;SDS011;20011;51.510;9.942;2023-05-13T15:31:11;5.90;;;2.45;;
33672;SDS011;20011;51.510;9.942;2023-05-13T15:33:39;4.93;;;2.45;;
33672;SDS011;20011;51.510;9.942;2023-05-13T15:36:07;4.05;;;2.50;;